Time;durP1;ratioP1;P1;durP2;ratioP2;P2;SDS_P1;SDS_P2;PMS_P1;PMS_P2;Temp;Humidity;BMP_temperature;BMP_pressure;BME280_temperature;BME280_humidity;BME280_pressure;Samples;Min_cycle;Max_cycle;Signal;HPM_P1;HPM_P2
2021/03/20 00:00:48;;;;;;;;;;;;;;;0.87;90.12;102464.81;5006193;28;20459;-82
2021/03/20 00:03:14;;;;;;;;;;;;;;;0.78;90.34;102473.13;5011388;28;20463;-85
2021/03/20 00:05:39;;;;;;;;;;;;;;;0.78;90.58;102473.97;5005443;28;20120;-84
2021/03/20 00:08:05;;;;;;;;;;;;;;;0.71;90.11;102468.97;5019042;28;19921;-81
2021/03/20 00:10:31;;;;;;;;;;;;;;;0.74;90.56;102475.00;4992138;28;19921;-83
2021/03/20 00:12:56;;;;;;;;;;;;;;;0.65;90.92;102481.50;5007036;28;19921;-83
2021/03/20 00:15:24;;;;;;;;;;;;;;;0.66;91.21;102488.53;5004309;28;19925;-86
2021/03/20 00:17:49;;;;;;;;;;;;;;;0.60;91.85;102486.09;5015884;28;19967;-84
2021/03/20 00:20:17;;;;;;;;;;;;;;;0.61;91.68;102489.63;5017967;28;20017;-84
2021/03/20 00:22:42;;;;;;;;;;;;;;;0.55;91.22;102490.72;5007253;28;19922;-86
2021/03/20 00:25:08;;;;;;;;;;;;;;;0.57;92.46;102488.00;5007185;28;19917;-85
2021/03/20 00:27:33;;;;;;;;;;;;;;;0.53;90.99;102486.41;5008645;28;20063;-84
2021/03/20 00:29:59;;;;;;;;;;;;;;;0.49;92.31;102490.94;5008874;28;20004;-82
2021/03/20 00:32:24;;;;;;;;;;;;;;;0.40;92.42;102483.34;5007914;28;20311;-85
2021/03/20 00:34:49;;;;;;;;;;;;;;;0.35;92.69;102498.53;5007013;28;20291;-82
2021/03/20 00:37:15;;;;;;;;;;;;;;;0.29;91.74;102493.44;5009611;28;19928;-85
2021/03/20 00:39:41;;;;;;;;;;;;;;;0.26;92.33;102505.00;5024931;28;19933;-85
2021/03/20 00:42:06;;;;;;;;;;;;;;;0.29;93.46;102502.25;5019129;28;20135;-84
2021/03/20 00:44:31;;;;;;;;;;;;;;;0.30;93.73;102500.47;5024885;28;19960;-83
2021/03/20 00:46:56;;;;;;;;;;;;;;;0.16;93.08;102504.44;5027534;28;19925;-84
2021/03/20 00:49:22;;;;;;;;;;;;;;;0.04;92.31;102510.19;5024444;28;20387;-85
2021/03/20 00:51:47;;;;;;;;;;;;;;;-0.02;93.18;102510.41;5026301;28;19968;-85
2021/03/20 00:54:12;;;;;;;;;;;;;;;-0.10;92.26;102512.44;5007200;28;20391;-83
2021/03/20 00:56:37;;;;;;;;;;;;;;;-0.08;91.58;102518.53;5004810;28;20003;-83
2021/03/20 00:59:03;;;;;;;;;;;;;;;-0.10;92.08;102523.00;5006301;28;19928;-84
2021/03/20 01:01:28;;;;;;;;;;;;;;;-0.12;92.42;102532.75;5024274;28;20372;-82
2021/03/20 01:03:53;;;;;;;;;;;;;;;-0.11;92.48;102537.97;5014642;28;19921;-83
2021/03/20 01:06:20;;;;;;;;;;;;;;;-0.11;91.94;102537.13;5003357;28;19917;-83
2021/03/20 01:08:45;;;;;;;;;;;;;;;-0.16;91.32;102541.69;5010475;28;19956;-84
2021/03/20 01:11:12;;;;;;;;;;;;;;;-0.12;91.16;102548.56;5013490;28;19979;-82
2021/03/20 01:13:37;;;;;;;;;;;;;;;-0.13;91.46;102536.31;5019655;28;19925;-82
2021/03/20 01:16:03;;;;;;;;;;;;;;;-0.18;91.27;102538.22;4990569;28;19988;-83
2021/03/20 01:18:28;;;;;;;;;;;;;;;-0.22;90.21;102534.84;5005467;28;20012;-82
2021/03/20 01:20:54;;;;;;;;;;;;;;;-0.11;93.59;102522.13;5006883;28;19917;-84
2021/03/20 01:23:20;;;;;;;;;;;;;;;-0.18;91.71;102522.41;5020599;28;19967;-83
2021/03/20 01:25:45;;;;;;;;;;;;;;;-0.21;91.25;102519.88;5029779;28;20376;-83
2021/03/20 01:28:10;;;;;;;;;;;;;;;-0.14;92.55;102510.84;5029855;28;19971;-82
2021/03/20 01:30:38;;;;;;;;;;;;;;;-0.17;93.33;102516.19;5044621;28;19918;-82
2021/03/20 01:33:03;;;;;;;;;;;;;;;-0.15;94.07;102512.59;5029652;28;19921;-81
2021/03/20 01:35:29;;;;;;;;;;;;;;;-0.15;94.06;102517.00;5029909;28;19925;-81
2021/03/20 01:37:54;;;;;;;;;;;;;;;-0.17;93.72;102516.19;5029190;28;20403;-83
2021/03/20 01:40:24;;;;;;;;;;;;;;;-0.22;92.34;102518.16;5030507;28;19948;-83
2021/03/20 01:42:50;;;;;;;;;;;;;;;-0.28;93.92;102517.44;5014501;28;19996;-81
2021/03/20 01:45:26;;;;;;;;;;;;;;;-0.31;93.89;102514.06;5011166;28;19956;-82
2021/03/20 01:48:00;;;;;;;;;;;;;;;-0.37;94.09;102509.00;5013963;28;19922;-83
2021/03/20 01:50:25;;;;;;;;;;;;;;;-0.43;94.98;102510.06;5018866;28;20299;-83
2021/03/20 01:52:54;;;;;;;;;;;;;;;-0.52;95.67;102516.50;5030458;28;19921;-81
2021/03/20 01:55:20;;;;;;;;;;;;;;;-0.58;95.05;102524.59;5029839;28;19944;-84
2021/03/20 01:57:57;;;;;;;;;;;;;;;-0.66;95.02;102521.34;5024153;28;19971;-83
2021/03/20 02:00:37;;;;;;;;;;;;;;;-0.66;96.70;102520.47;5015129;28;20060;-81
2021/03/20 02:03:04;;;;;;;;;;;;;;;-0.67;95.06;102519.63;5003340;28;19964;-82
2021/03/20 02:05:31;;;;;;;;;;;;;;;-0.60;96.57;102521.16;5023654;28;19964;-83
2021/03/20 02:07:58;;;;;;;;;;;;;;;-0.61;96.43;102511.50;5018546;28;19921;-80
2021/03/20 02:10:24;;;;;;;;;;;;;;;-0.63;96.44;102517.72;5028470;28;20367;-82
2021/03/20 02:12:53;;;;;;;;;;;;;;;-0.81;94.79;102517.41;5024654;28;19967;-83
2021/03/20 02:15:27;;;;;;;;;;;;;;;-0.75;96.91;102500.53;5028127;28;19987;-83
2021/03/20 02:18:12;;;;;;;;;;;;;;;-0.72;97.06;102513.63;5033167;28;20339;-81
2021/03/20 02:20:51;;;;;;;;;;;;;;;-0.80;95.95;102510.41;5019657;28;19917;-82
2021/03/20 02:23:35;;;;;;;;;;;;;;;-0.86;96.76;102516.72;5019240;28;20402;-83
2021/03/20 02:26:19;;;;;;;;;;;;;;;-0.86;97.41;102516.72;5025576;28;19975;-81
2021/03/20 02:28:59;;;;;;;;;;;;;;;-0.88;97.64;102513.25;5011230;28;20272;-84
2021/03/20 02:31:33;;;;;;;;;;;;;;;-0.95;97.63;102516.97;5023707;28;20008;-83
2021/03/20 02:33:58;;;;;;;;;;;;;;;-1.01;98.21;102511.91;5024477;28;20066;-83
2021/03/20 02:36:35;;;;;;;;;;;;;;;-1.00;98.21;102508.38;5029220;28;19999;-81
2021/03/20 02:39:20;;;;;;;;;;;;;;;-1.11;97.82;102511.34;5026988;28;20067;-84
2021/03/20 02:41:51;;;;;;;;;;;;;;;-1.08;98.73;102502.50;5004377;28;19940;-81
2021/03/20 02:44:39;;;;;;;;;;;;;;;-1.09;98.63;102498.09;5026620;28;19921;-81
2021/03/20 02:47:06;;;;;;;;;;;;;;;-1.10;97.69;102494.63;5029818;28;20190;-82
2021/03/20 02:49:37;;;;;;;;;;;;;;;-1.05;97.51;102503.25;5017230;28;19929;-83
2021/03/20 02:52:25;;;;;;;;;;;;;;;-1.08;97.61;102500.72;5025877;28;19921;-82
2021/03/20 02:54:57;;;;;;;;;;;;;;;-1.14;97.80;102490.38;5007802;28;19929;-81
2021/03/20 02:57:25;;;;;;;;;;;;;;;-1.21;97.76;102494.06;5025948;28;20369;-82
2021/03/20 02:59:56;;;;;;;;;;;;;;;-1.34;97.15;102498.00;5028736;28;20173;-82
2021/03/20 03:02:24;;;;;;;;;;;;;;;-1.32;98.70;102501.44;5034684;28;19964;-83
2021/03/20 03:04:53;;;;;;;;;;;;;;;-1.29;98.53;102506.66;5023169;28;19921;-82
2021/03/20 03:07:21;;;;;;;;;;;;;;;-1.28;98.32;102509.22;5024029;28;19925;-83
2021/03/20 03:09:52;;;;;;;;;;;;;;;-1.39;97.51;102500.78;5024260;28;19918;-82
2021/03/20 03:12:21;;;;;;;;;;;;;;;-1.42;96.57;102501.72;5017248;28;19923;-83
2021/03/20 03:14:52;;;;;;;;;;;;;;;-1.33;97.23;102494.47;5027237;28;20642;-84
2021/03/20 03:17:17;;;;;;;;;;;;;;;-1.31;96.65;102501.41;5018211;28;19921;-82
2021/03/20 03:19:43;;;;;;;;;;;;;;;-1.38;96.13;102499.88;5040972;28;19921;-81
2021/03/20 03:22:11;;;;;;;;;;;;;;;-1.44;96.24;102503.56;5023471;28;20399;-83
2021/03/20 03:24:38;;;;;;;;;;;;;;;-1.42;97.16;102501.72;5026576;28;20093;-82
2021/03/20 03:27:05;;;;;;;;;;;;;;;-1.46;97.61;102504.50;5023167;28;19922;-82
2021/03/20 03:29:32;;;;;;;;;;;;;;;-1.47;97.92;102505.41;5023186;28;19927;-81
2021/03/20 03:32:03;;;;;;;;;;;;;;;-1.59;96.37;102503.97;5017105;28;19937;-83
2021/03/20 03:34:48;;;;;;;;;;;;;;;-1.64;97.29;102505.88;5018763;28;19931;-82
2021/03/20 03:37:16;;;;;;;;;;;;;;;-1.56;98.05;102513.56;5024210;28;19925;-81
2021/03/20 03:39:52;;;;;;;;;;;;;;;-1.59;96.67;102509.25;5024438;28;20014;-81
2021/03/20 03:42:18;;;;;;;;;;;;;;;-1.61;97.53;102516.34;5026117;28;19925;-80
2021/03/20 03:44:45;;;;;;;;;;;;;;;-1.68;96.77;102513.00;5025983;28;19921;-82
2021/03/20 03:47:13;;;;;;;;;;;;;;;-1.66;97.91;102513.84;5021417;28;19925;-81
2021/03/20 03:49:39;;;;;;;;;;;;;;;-1.69;97.52;102518.34;5023097;28;19921;-82
2021/03/20 03:52:04;;;;;;;;;;;;;;;-1.77;97.88;102521.16;5020748;28;19928;-81
2021/03/20 03:54:30;;;;;;;;;;;;;;;-1.80;98.04;102529.16;5023659;28;19925;-81
2021/03/20 03:57:12;;;;;;;;;;;;;;;-1.76;98.27;102520.25;5021467;28;20449;-83
2021/03/20 03:59:46;;;;;;;;;;;;;;;-1.83;97.13;102521.34;5020475;28;19929;-82
2021/03/20 04:02:12;;;;;;;;;;;;;;;-1.85;96.53;102528.41;5032400;28;20371;-81
2021/03/20 04:04:48;;;;;;;;;;;;;;;-1.87;96.99;102517.06;5023316;28;19932;-82
2021/03/20 04:07:17;;;;;;;;;;;;;;;-1.88;97.81;102523.22;5038740;28;20707;-82
2021/03/20 04:09:42;;;;;;;;;;;;;;;-1.94;97.72;102524.25;5016377;28;19925;-83
2021/03/20 04:12:10;;;;;;;;;;;;;;;-1.91;97.38;102518.06;5021998;28;20620;-82
2021/03/20 04:14:42;;;;;;;;;;;;;;;-1.91;96.66;102513.66;5024054;28;19925;-82
2021/03/20 04:17:15;;;;;;;;;;;;;;;-1.92;95.00;102513.72;5024340;28;19928;-80
2021/03/20 04:19:55;;;;;;;;;;;;;;;-1.94;96.96;102513.75;5028720;28;19917;-80
2021/03/20 04:22:39;;;;;;;;;;;;;;;-1.89;97.34;102511.84;5028230;28;19921;-80
2021/03/20 04:25:15;;;;;;;;;;;;;;;-1.92;97.28;102513.72;5022000;28;19921;-83
2021/03/20 04:27:46;;;;;;;;;;;;;;;-1.93;97.54;102514.59;5024152;28;19932;-83
2021/03/20 04:30:23;;;;;;;;;;;;;;;-1.97;97.04;102512.97;5018171;28;19925;-82
2021/03/20 04:32:51;;;;;;;;;;;;;;;-2.02;97.10;102504.31;4982895;28;20347;-82
2021/03/20 04:35:21;;;;;;;;;;;;;;;-2.06;96.78;102504.41;5027402;28;19929;-80
2021/03/20 04:37:48;;;;;;;;;;;;;;;-2.10;97.11;102508.03;5013975;28;19921;-82
2021/03/20 04:40:28;;;;;;;;;;;;;;;-2.07;98.52;102507.97;5023431;28;19929;-82
2021/03/20 04:42:55;;;;;;;;;;;;;;;-2.13;98.31;102502.88;5019214;28;19928;-83
2021/03/20 04:45:26;;;;;;;;;;;;;;;-2.13;98.35;102496.72;5014201;28;19925;-83
2021/03/20 04:47:52;;;;;;;;;;;;;;;-2.14;98.42;102506.38;5020325;28;20287;-81
2021/03/20 04:50:19;;;;;;;;;;;;;;;-2.14;98.39;102505.53;5021875;28;20011;-82
2021/03/20 04:52:47;;;;;;;;;;;;;;;-2.06;98.79;102511.44;5021172;28;19925;-81
2021/03/20 04:55:12;;;;;;;;;;;;;;;-2.12;99.02;102515.09;5021415;28;20318;-80
2021/03/20 04:57:43;;;;;;;;;;;;;;;-2.18;98.99;102512.63;5026377;28;19925;-79
2021/03/20 05:00:14;;;;;;;;;;;;;;;-2.21;98.58;102510.09;5041428;28;21938;-80
2021/03/20 05:02:47;;;;;;;;;;;;;;;-2.19;98.82;102510.03;5025255;28;20122;-82
2021/03/20 05:05:31;;;;;;;;;;;;;;;-2.32;96.92;102501.59;5028857;28;19929;-83
2021/03/20 05:08:26;;;;;;;;;;;;;;;-2.32;97.91;102502.47;5038626;28;19927;-81
2021/03/20 05:11:20;;;;;;;;;;;;;;;-2.45;98.65;102514.19;5024866;28;19936;-80
2021/03/20 05:13:49;;;;;;;;;;;;;;;-2.51;98.98;102522.22;5014854;28;19979;-82
2021/03/20 05:16:17;;;;;;;;;;;;;;;-2.58;98.96;102526.78;5024994;28;19924;-79
2021/03/20 05:18:46;;;;;;;;;;;;;;;-2.58;98.79;102533.81;5030708;28;20378;-81
2021/03/20 05:21:13;;;;;;;;;;;;;;;-2.46;100.00;102532.66;5025794;28;19929;-82
2021/03/20 05:23:39;;;;;;;;;;;;;;;-2.55;100.00;102537.22;5024551;28;19921;-81
2021/03/20 05:26:04;;;;;;;;;;;;;;;-2.54;100.00;102543.34;5025256;28;19947;-81
2021/03/20 05:28:32;;;;;;;;;;;;;;;-2.57;100.00;102539.03;5025873;28;20137;-79
2021/03/20 05:30:59;;;;;;;;;;;;;;;-2.57;100.00;102540.78;5023449;28;19927;-79
2021/03/20 05:33:25;;;;;;;;;;;;;;;-2.59;100.00;102542.59;5021849;28;19936;-83
2021/03/20 05:35:50;;;;;;;;;;;;;;;-2.64;100.00;102539.22;5025312;28;20291;-81
2021/03/20 05:38:15;;;;;;;;;;;;;;;-2.56;100.00;102540.75;5029547;28;19967;-80
2021/03/20 05:40:41;;;;;;;;;;;;;;;-2.48;100.00;102544.97;5014229;28;19921;-82
2021/03/20 05:43:25;;;;;;;;;;;;;;;-2.46;100.00;102540.53;5004370;28;20191;-80
2021/03/20 05:46:17;;;;;;;;;;;;;;;-2.45;100.00;102543.09;5019435;28;19921;-79
2021/03/20 05:48:47;;;;;;;;;;;;;;;-2.50;100.00;102545.88;5023266;28;19921;-82
2021/03/20 05:51:16;;;;;;;;;;;;;;;-2.54;100.00;102545.97;5023892;28;19925;-81
2021/03/20 05:53:59;;;;;;;;;;;;;;;-2.57;100.00;102541.66;5025204;28;19925;-82
2021/03/20 05:56:30;;;;;;;;;;;;;;;-2.53;100.00;102548.56;5025485;28;19928;-81
2021/03/20 05:59:01;;;;;;;;;;;;;;;-2.44;100.00;102542.22;5017875;28;19926;-80
2021/03/20 06:01:45;;;;;;;;;;;;;;;-2.42;100.00;102545.66;5018755;28;19921;-79
2021/03/20 06:04:29;;;;;;;;;;;;;;;-2.39;100.00;102557.88;5024928;28;20623;-83
2021/03/20 06:06:54;;;;;;;;;;;;;;;-2.41;100.00;102543.94;5021332;28;19929;-81
2021/03/20 06:09:28;;;;;;;;;;;;;;;-2.46;100.00;102551.06;5025915;28;19936;-79
2021/03/20 06:12:05;;;;;;;;;;;;;;;-2.45;100.00;102548.38;5039632;28;19968;-83
2021/03/20 06:14:54;;;;;;;;;;;;;;;-2.46;100.00;102553.69;5020223;28;19925;-80
2021/03/20 06:17:38;;;;;;;;;;;;;;;-2.43;100.00;102550.97;5015175;28;20367;-79
2021/03/20 06:20:15;;;;;;;;;;;;;;;-2.33;100.00;102552.44;5024456;28;19967;-82
2021/03/20 06:22:59;;;;;;;;;;;;;;;-2.31;100.00;102551.53;5008208;28;19951;-83
2021/03/20 06:25:24;;;;;;;;;;;;;;;-2.23;100.00;102559.22;5022848;28;20299;-81
2021/03/20 06:27:51;;;;;;;;;;;;;;;-2.26;100.00;102554.03;5040872;28;19921;-83
2021/03/20 06:30:16;;;;;;;;;;;;;;;-2.25;100.00;102553.13;5025134;28;20489;-81
2021/03/20 06:32:44;;;;;;;;;;;;;;;-2.25;100.00;102571.53;5023916;28;20012;-81
2021/03/20 06:35:16;;;;;;;;;;;;;;;-2.33;100.00;102568.22;5024414;28;19953;-83
2021/03/20 06:37:45;;;;;;;;;;;;;;;-2.34;100.00;102571.78;5024798;28;19921;-83
2021/03/20 06:40:14;;;;;;;;;;;;;;;-2.34;100.00;102574.41;5025579;28;20422;-80
2021/03/20 06:42:39;;;;;;;;;;;;;;;-2.32;100.00;102575.25;5013302;28;19925;-82
2021/03/20 06:45:15;;;;;;;;;;;;;;;-2.29;100.00;102567.28;5024174;28;19967;-81
2021/03/20 06:47:40;;;;;;;;;;;;;;;-2.17;100.00;102579.25;5028975;28;19936;-81
2021/03/20 06:50:21;;;;;;;;;;;;;;;-2.03;100.00;102576.28;5030473;28;19917;-81
2021/03/20 06:52:49;;;;;;;;;;;;;;;-1.99;99.97;102573.50;5024112;28;20015;-80
2021/03/20 06:55:25;;;;;;;;;;;;;;;-1.94;99.52;102587.41;5023332;28;20015;-81
2021/03/20 06:57:51;;;;;;;;;;;;;;;-1.88;100.00;102581.13;5023872;28;19921;-82
2021/03/20 07:00:24;;;;;;;;;;;;;;;-1.81;100.00;102580.06;5026371;28;19928;-80
2021/03/20 07:03:15;;;;;;;;;;;;;;;-1.79;100.00;102583.50;5015864;28;19917;-83
2021/03/20 07:05:59;;;;;;;;;;;;;;;-1.73;99.90;102590.38;5011041;28;20442;-80
2021/03/20 07:08:28;;;;;;;;;;;;;;;-1.68;99.75;102589.34;5019795;28;20380;-82
2021/03/20 07:10:54;;;;;;;;;;;;;;;-1.62;99.69;102591.81;5032568;28;19921;-83
2021/03/20 07:13:23;;;;;;;;;;;;;;;-1.54;98.77;102594.25;5023596;28;19963;-82
2021/03/20 07:16:02;;;;;;;;;;;;;;;-1.47;98.70;102597.56;5024787;28;20272;-83
2021/03/20 07:18:32;;;;;;;;;;;;;;;-1.47;97.72;102595.78;5026100;28;19925;-79
2021/03/20 07:20:58;;;;;;;;;;;;;;;-1.44;96.28;102586.94;5021314;28;19952;-82
2021/03/20 07:23:24;;;;;;;;;;;;;;;-1.31;95.83;102593.59;5024224;28;19932;-82
2021/03/20 07:25:54;;;;;;;;;;;;;;;-1.23;95.02;102594.25;5020984;28;20011;-80
2021/03/20 07:28:21;;;;;;;;;;;;;;;-1.15;95.85;102602.81;5022793;28;19937;-80
2021/03/20 07:30:53;;;;;;;;;;;;;;;-1.05;96.00;102599.88;5022558;28;19921;-82
2021/03/20 07:33:38;;;;;;;;;;;;;;;-0.99;95.64;102594.44;5019243;28;19936;-82
2021/03/20 07:36:22;;;;;;;;;;;;;;;-0.95;94.90;102593.41;5004280;28;19933;-81
2021/03/20 07:39:03;;;;;;;;;;;;;;;-0.91;94.30;102587.16;5015410;28;20414;-82
2021/03/20 07:41:41;;;;;;;;;;;;;;;-0.86;94.62;102590.53;5033620;28;19925;-80
2021/03/20 07:44:07;;;;;;;;;;;;;;;-0.78;94.00;102593.75;5006649;28;19917;-80
2021/03/20 07:46:34;;;;;;;;;;;;;;;-0.71;93.32;102592.69;5005503;28;20291;-79
2021/03/20 07:49:01;;;;;;;;;;;;;;;-0.67;90.56;102590.81;4993155;28;19972;-82
2021/03/20 07:51:26;;;;;;;;;;;;;;;-0.61;90.94;102605.56;5026766;28;19925;-81
2021/03/20 07:53:52;;;;;;;;;;;;;;;-0.55;89.43;102600.09;5023498;28;20386;-81
2021/03/20 07:56:20;;;;;;;;;;;;;;;-0.54;87.33;102591.31;5023273;28;19925;-80
2021/03/20 07:58:50;;;;;;;;;;;;;;;-0.48;89.85;102599.00;5022333;28;19921;-80
2021/03/20 08:01:18;;;;;;;;;;;;;;;-0.35;92.06;102604.75;5020841;28;20371;-80
2021/03/20 08:03:53;;;;;;;;;;;;;;;-0.26;91.57;102602.69;5024438;28;20295;-79
2021/03/20 08:06:21;;;;;;;;;;;;;;;-0.09;92.14;102604.75;5024860;28;20024;-81
2021/03/20 08:08:47;;;;;;;;;;;;;;;0.03;92.16;102613.16;5023562;28;19925;-81
2021/03/20 08:11:31;;;;;;;;;;;;;;;0.11;90.57;102600.56;5020335;28;19982;-81
2021/03/20 08:14:15;;;;;;;;;;;;;;;0.17;84.76;102603.88;5017411;28;20040;-82
2021/03/20 08:16:41;;;;;;;;;;;;;;;0.25;87.32;102603.59;5018767;28;20020;-81
2021/03/20 08:19:10;;;;;;;;;;;;;;;0.25;81.54;102608.03;5026421;28;19917;-82
2021/03/20 08:21:44;;;;;;;;;;;;;;;0.26;82.55;102605.34;5025674;28;20011;-83
2021/03/20 08:24:26;;;;;;;;;;;;;;;0.31;83.95;102615.72;5023884;28;20379;-82
2021/03/20 08:26:58;;;;;;;;;;;;;;;0.43;84.07;102618.81;5008831;28;19961;-81
2021/03/20 08:29:42;;;;;;;;;;;;;;;0.48;80.68;102616.00;5025440;28;20008;-82
2021/03/20 08:32:07;;;;;;;;;;;;;;;0.51;78.60;102612.38;5020820;28;19929;-83
2021/03/20 08:34:51;;;;;;;;;;;;;;;0.53;82.04;102619.34;5009339;28;19925;-83
2021/03/20 08:37:22;;;;;;;;;;;;;;;0.53;79.81;102613.19;5021340;28;20422;-84
2021/03/20 08:39:50;;;;;;;;;;;;;;;0.67;81.90;102626.78;5012143;28;20008;-83
2021/03/20 08:42:15;;;;;;;;;;;;;;;0.79;80.15;102617.53;5026591;28;19921;-82
2021/03/20 08:44:51;;;;;;;;;;;;;;;0.89;79.85;102610.97;5029824;28;19928;-84
2021/03/20 08:47:31;;;;;;;;;;;;;;;0.86;80.39;102611.97;5030328;28;20012;-84
2021/03/20 08:50:15;;;;;;;;;;;;;;;1.02;82.54;102616.69;5020545;28;19948;-83
2021/03/20 08:52:56;;;;;;;;;;;;;;;1.20;80.58;102620.41;5025730;28;20403;-83
2021/03/20 08:55:21;;;;;;;;;;;;;;;1.20;78.48;102617.75;5045305;28;20276;-85
2021/03/20 08:57:55;;;;;;;;;;;;;;;1.33;76.72;102604.00;5029297;28;20326;-84
2021/03/20 09:00:28;;;;;;;;;;;;;;;1.41;77.65;102603.72;5027834;28;19944;-83
2021/03/20 09:02:54;;;;;;;;;;;;;;;1.53;75.43;102605.00;5016319;28;19921;-82
2021/03/20 09:05:27;;;;;;;;;;;;;;;1.60;76.66;102608.25;5021879;28;20023;-84
2021/03/20 09:07:55;;;;;;;;;;;;;;;1.84;76.24;102604.59;5023763;28;19924;-84
2021/03/20 09:10:24;;;;;;;;;;;;;;;1.95;75.53;102605.00;5023251;28;19921;-85
2021/03/20 09:12:55;;;;;;;;;;;;;;;2.11;73.85;102601.72;5024390;28;19928;-84
2021/03/20 09:15:23;;;;;;;;;;;;;;;2.19;72.30;102602.25;5028833;28;19925;-84
2021/03/20 09:17:48;;;;;;;;;;;;;;;2.22;68.00;102595.03;5022659;28;19932;-82
2021/03/20 09:20:26;;;;;;;;;;;;;;;2.21;66.13;102595.09;5022926;28;20652;-84
2021/03/20 09:22:52;;;;;;;;;;;;;;;2.22;70.34;102596.84;5024367;28;19928;-82
2021/03/20 09:25:24;;;;;;;;;;;;;;;2.33;70.33;102594.59;5026344;28;19925;-82
2021/03/20 09:27:58;;;;;;;;;;;;;;;2.48;70.38;102599.19;5025265;28;19928;-82
2021/03/20 09:30:29;;;;;;;;;;;;;;;2.61;67.98;102594.19;5022844;28;19925;-84
2021/03/20 09:32:54;;;;;;;;;;;;;;;2.58;62.99;102583.72;5038766;28;20299;-82
2021/03/20 09:35:23;;;;;;;;;;;;;;;2.62;67.26;102600.38;5043510;28;19931;-85
2021/03/20 09:37:51;;;;;;;;;;;;;;;2.68;66.18;102590.34;5025471;28;19979;-83
2021/03/20 09:40:36;;;;;;;;;;;;;;;2.60;62.17;102597.78;5036776;28;20458;-85
2021/03/20 09:43:21;;;;;;;;;;;;;;;2.70;67.81;102598.22;5020008;28;20298;-82
2021/03/20 09:46:07;;;;;;;;;;;;;;;2.94;63.49;102597.13;5014846;28;20399;-84
2021/03/20 09:48:44;;;;;;;;;;;;;;;3.12;66.17;102602.50;5023259;28;19936;-83
2021/03/20 09:51:38;;;;;;;;;;;;;;;2.99;65.28;102598.69;5023624;28;19951;-82
2021/03/20 09:54:33;;;;;;;;;;;;;;;3.01;65.29;102586.22;4981476;28;19925;-84
2021/03/20 09:59:42;;;;;;;;;;;;;;;3.02;65.54;102570.25;5022099;28;19921;-85
2021/03/20 10:02:10;;;;;;;;;;;;;;;3.14;67.38;102561.72;5039171;28;19952;-82
2021/03/20 10:04:37;;;;;;;;;;;;;;;3.13;64.00;102559.97;5024172;28;19928;-83
2021/03/20 10:07:16;;;;;;;;;;;;;;;3.12;68.98;102558.25;5023507;28;19921;-85
2021/03/20 10:09:57;;;;;;;;;;;;;;;3.27;68.76;102559.31;5022827;28;20312;-82
2021/03/20 10:12:52;;;;;;;;;;;;;;;3.41;69.28;102560.44;5043024;28;20074;-85
2021/03/20 10:15:23;;;;;;;;;;;;;;;3.52;68.81;102568.75;5039888;28;19932;-85
2021/03/20 10:17:54;;;;;;;;;;;;;;;3.53;66.86;102567.81;5026895;28;20387;-83
2021/03/20 10:20:22;;;;;;;;;;;;;;;3.53;67.34;102558.03;5012344;28;19924;-84
2021/03/20 10:22:50;;;;;;;;;;;;;;;3.74;66.89;102568.53;5032328;28;19930;-84
2021/03/20 10:25:15;;;;;;;;;;;;;;;3.79;67.17;102553.22;5004794;28;19922;-82
2021/03/20 10:27:49;;;;;;;;;;;;;;;3.83;68.62;102547.69;5000579;28;19928;-85
2021/03/20 10:30:16;;;;;;;;;;;;;;;4.00;67.20;102540.66;4999734;28;19928;-83
2021/03/20 10:33:00;;;;;;;;;;;;;;;4.09;66.91;102547.31;5002812;28;19929;-84
2021/03/20 10:37:05;;;;;;;;;;;;;;;4.00;63.59;102545.97;5119243;27;19919;-85
2021/03/20 10:39:35;;;;;;;;;;;;;;;3.99;67.64;102546.91;5088849;28;19920;-83
2021/03/20 10:42:04;;;;;;;;;;;;;;;4.12;65.76;102547.16;5091427;28;19962;-86
2021/03/20 10:44:32;;;;;;;;;;;;;;;4.14;67.09;102542.59;5105936;28;19955;-85
2021/03/20 10:47:06;;;;;;;;;;;;;;;4.20;69.03;102539.63;5080954;28;20389;-85
2021/03/20 10:49:33;;;;;;;;;;;;;;;4.29;68.68;102542.66;5099553;28;19916;-83
2021/03/20 10:51:58;;;;;;;;;;;;;;;4.30;68.20;102536.41;5101560;28;19920;-85
2021/03/20 10:54:27;;;;;;;;;;;;;;;4.25;68.13;102525.16;5085292;28;19942;-85
2021/03/20 10:56:54;;;;;;;;;;;;;;;4.56;69.27;102531.50;5099881;28;19928;-85
2021/03/20 10:59:22;;;;;;;;;;;;;;;4.67;68.63;102531.78;5086354;28;19920;-84
2021/03/20 11:01:47;;;;;;;;;;;;;;;4.39;69.03;102529.75;5079870;28;19928;-84
2021/03/20 11:04:24;;;;;;;;;;;;;;;4.61;69.37;102526.78;5089937;28;20300;-86
2021/03/20 11:06:53;;;;;;;;;;;;;;;4.70;69.08;102525.44;5076281;28;19923;-85
2021/03/20 11:09:20;;;;;;;;;;;;;;;4.76;69.31;102522.44;5098603;28;19928;-82
2021/03/20 11:11:46;;;;;;;;;;;;;;;4.71;68.40;102528.00;5071865;28;19929;-85
2021/03/20 11:14:13;;;;;;;;;;;;;;;4.66;68.28;102521.22;5076365;28;20015;-85
2021/03/20 11:16:43;;;;;;;;;;;;;;;4.68;68.16;102529.97;5083528;28;19968;-83
2021/03/20 11:19:11;;;;;;;;;;;;;;;4.72;66.20;102527.06;5077638;28;19966;-83
2021/03/20 11:21:38;;;;;;;;;;;;;;;4.80;69.12;102510.66;5075261;28;19924;-84
2021/03/20 11:24:06;;;;;;;;;;;;;;;4.90;67.81;102519.88;5090474;28;19920;-85
2021/03/20 11:26:31;;;;;;;;;;;;;;;4.84;67.93;102508.72;5079985;28;20415;-86
2021/03/20 11:28:58;;;;;;;;;;;;;;;4.87;69.99;102501.41;5083624;28;19920;-84
2021/03/20 11:31:24;;;;;;;;;;;;;;;5.05;71.83;102502.19;5082858;28;19970;-83
2021/03/20 11:33:49;;;;;;;;;;;;;;;5.20;67.98;102498.63;5080387;28;20388;-85
2021/03/20 11:36:25;;;;;;;;;;;;;;;5.25;67.52;102497.53;5078798;28;19947;-83
2021/03/20 11:38:50;;;;;;;;;;;;;;;5.37;66.46;102491.50;5075723;28;19928;-86
2021/03/20 11:41:18;;;;;;;;;;;;;;;5.54;67.22;102490.53;5096970;28;19920;-86
2021/03/20 11:43:45;;;;;;;;;;;;;;;5.40;63.82;102491.31;5109253;28;19924;-83
2021/03/20 11:46:12;;;;;;;;;;;;;;;5.54;67.43;102486.03;5078955;28;19916;-85
2021/03/20 11:48:49;;;;;;;;;;;;;;;5.58;69.67;102482.28;5069789;28;20380;-83
2021/03/20 11:51:20;;;;;;;;;;;;;;;5.68;69.93;102476.41;5069409;28;19920;-83
2021/03/20 11:53:46;;;;;;;;;;;;;;;5.93;68.87;102466.00;5069975;28;19985;-84
2021/03/20 11:56:17;;;;;;;;;;;;;;;5.92;67.26;102466.91;5069665;28;19931;-84
2021/03/20 11:58:50;;;;;;;;;;;;;;;5.76;66.63;102459.00;5058129;28;19932;-84
2021/03/20 12:01:33;;;;;;;;;;;;;;;5.83;69.68;102467.47;5064102;28;19921;-84
2021/03/20 12:04:15;;;;;;;;;;;;;;;5.80;64.68;102460.50;5050288;28;20293;-84
2021/03/20 12:06:41;;;;;;;;;;;;;;;5.79;65.42;102453.47;5063971;28;19970;-85
2021/03/20 12:09:28;;;;;;;;;;;;;;;5.74;66.62;102452.03;5068948;28;19968;-85
2021/03/20 12:11:55;;;;;;;;;;;;;;;5.80;68.33;102454.34;5062302;28;19929;-85
2021/03/20 12:14:35;;;;;;;;;;;;;;;5.87;68.85;102445.03;5059987;28;19928;-87
2021/03/20 12:17:04;;;;;;;;;;;;;;;5.90;67.30;102450.19;5065699;28;20003;-85
2021/03/20 12:19:30;;;;;;;;;;;;;;;5.84;67.42;102445.19;5066051;28;19924;-84
2021/03/20 12:22:00;;;;;;;;;;;;;;;5.93;66.76;102441.13;5084943;28;20303;-84
2021/03/20 12:24:28;;;;;;;;;;;;;;;6.02;70.47;102443.28;5078959;28;19920;-87
2021/03/20 12:26:53;;;;;;;;;;;;;;;5.85;64.20;102431.78;5085655;28;19924;-84
2021/03/20 12:29:30;;;;;;;;;;;;;;;5.92;66.71;102432.28;5064013;28;20299;-85
2021/03/20 12:32:15;;;;;;;;;;;;;;;5.97;67.40;102430.22;5066527;28;19964;-86
2021/03/20 12:34:40;;;;;;;;;;;;;;;6.04;69.26;102425.34;5062077;28;20206;-84
2021/03/20 12:37:15;;;;;;;;;;;;;;;6.09;68.82;102418.78;5061954;28;20292;-83
2021/03/20 12:39:41;;;;;;;;;;;;;;;6.24;66.97;102416.13;5079460;28;19960;-86
2021/03/20 12:42:06;;;;;;;;;;;;;;;6.51;67.18;102413.53;5062842;28;19964;-83
2021/03/20 12:44:39;;;;;;;;;;;;;;;6.30;65.03;102399.72;5074569;28;19920;-86
2021/03/20 12:47:05;;;;;;;;;;;;;;;6.40;62.43;102416.88;5086112;28;20377;-84
2021/03/20 12:49:40;;;;;;;;;;;;;;;6.42;65.19;102396.31;5063613;28;19950;-85
2021/03/20 12:52:11;;;;;;;;;;;;;;;6.59;65.33;102397.88;5085567;28;19985;-87
2021/03/20 12:54:40;;;;;;;;;;;;;;;6.92;65.74;102394.81;5091321;28;19924;-86
2021/03/20 12:57:06;;;;;;;;;;;;;;;7.14;63.54;102390.72;5071988;28;20362;-84
2021/03/20 12:59:31;;;;;;;;;;;;;;;7.23;63.01;102374.09;5061296;28;19924;-84
2021/03/20 13:01:56;;;;;;;;;;;;;;;7.24;64.74;102373.97;5075345;28;19924;-84
2021/03/20 13:04:22;;;;;;;;;;;;;;;7.28;62.49;102363.94;5071142;28;20311;-86